Burin Sea — VCXN — position and weather

sailwx.info

Track history (hours):
 
Tides and Currents Weather Stations Pressure Air Temp Water Temp Dewpoint Dewpoint Depression Visibility Wind Speed Wind Dir Waves Ship Positions

Burin Sea

Last reported at 2014-Dec-21 18:11 UTC. Time now 2014-Dec-21 19:23 UTC.
Position N 47°34' W 052°42'.

Length 82 m; draft 5.4 m.

Type: Tug. MMSI: 316300000.

Date/timePositionNaut miles runAvg speedWind from/ knotsBaromVisibWave heightAir tempDewpointWater temp
2014-Dec-21 18:11N 47°34' W 052°42'0 0.0
2014-Dec-21 17:30N 47°34' W 052°42'0 0.0
2014-Dec-21 16:32N 47°34' W 052°42'2 1.9
2014-Dec-21 15:29N 47°34' W 052°39'1211.7
2014-Dec-21 14:30N 47°30' W 052°23'  
2014-Dec-19 01:25N 47°29' W 052°20'1011.4
2014-Dec-19 00:33N 47°33' W 052°34'6 5.4
2014-Dec-18 23:31N 47°34' W 052°42'0 0.0
2014-Dec-18 22:31N 47°34' W 052°42'0 0.0
2014-Dec-18 21:31N 47°34' W 052°42'0 0.0
2014-Dec-18 20:20N 47°34' W 052°42'0 0.0
2014-Dec-18 19:30N 47°34' W 052°42'0 0.0
2014-Dec-18 18:31N 47°34' W 052°42'0 0.0
2014-Dec-18 17:31N 47°34' W 052°42'0 0.0
2014-Dec-18 16:26N 47°34' W 052°42'0 0.0
2014-Dec-18 15:33N 47°34' W 052°42'0 0.0
2014-Dec-18 14:15N 47°34' W 052°42'0 0.0
2014-Dec-18 13:28N 47°34' W 052°42'0 0.0
2014-Dec-18 12:29N 47°34' W 052°42'0 0.0
2014-Dec-18 11:32N 47°34' W 052°42'0 0.0
2014-Dec-18 10:30N 47°34' W 052°42'0 0.0
2014-Dec-18 09:31N 47°34' W 052°42'0 0.0
2014-Dec-18 08:25N 47°34' W 052°42'0 0.0
2014-Dec-18 07:32N 47°34' W 052°42'0 0.0
2014-Dec-18 06:27N 47°34' W 052°42'0 0.0
2014-Dec-18 05:27N 47°34' W 052°42'0 0.0
2014-Dec-18 04:25N 47°34' W 052°42'0 0.0
2014-Dec-18 03:29N 47°34' W 052°42'0 0.0
2014-Dec-18 02:29N 47°34' W 052°42'0 0.0
2014-Dec-18 01:33N 47°34' W 052°42'0 0.0
2014-Dec-18 00:34N 47°34' W 052°42'0 0.0
2014-Dec-17 23:28N 47°34' W 052°42'0 0.0
2014-Dec-17 22:29N 47°34' W 052°42'0 0.0
2014-Dec-17 21:27N 47°34' W 052°42'0 0.0
2014-Dec-17 20:24N 47°34' W 052°42'0 0.0
2014-Dec-17 19:28N 47°34' W 052°42'0 0.0
2014-Dec-17 18:29N 47°34' W 052°42'0 0.0
2014-Dec-17 17:32N 47°34' W 052°42'0 0.0
2014-Dec-17 16:30N 47°34' W 052°42'0 0.0
2014-Dec-17 15:25N 47°34' W 052°42'0 0.0
2014-Dec-17 14:31N 47°34' W 052°42'0 0.0
2014-Dec-17 13:32N 47°34' W 052°42'0 0.0
2014-Dec-17 12:27N 47°34' W 052°42'0 0.0
2014-Dec-17 11:33N 47°34' W 052°42'0 0.0
2014-Dec-17 10:22N 47°34' W 052°42'0 0.0
2014-Dec-17 09:29N 47°34' W 052°42'0 0.0
2014-Dec-17 08:29N 47°34' W 052°42'0 0.0
2014-Dec-17 07:30N 47°34' W 052°42'0 0.0
2014-Dec-17 06:31N 47°34' W 052°42'0 0.4
2014-Dec-17 05:29N 47°34' W 052°42'0 0.0
2014-Dec-17 04:30N 47°34' W 052°42'0 0.0
2014-Dec-17 03:33N 47°34' W 052°42'9 8.2
2014-Dec-17 02:29N 47°31' W 052°30'  
2014-Dec-13 22:33N 47°31' W 052°27'1010.2
2014-Dec-13 21:32N 47°34' W 052°42'0 0.0
2014-Dec-13 20:30N 47°34' W 052°42'0 0.0
2014-Dec-13 19:30N 47°34' W 052°42'0 0.0
2014-Dec-13 18:27N 47°34' W 052°42'0 0.0
2014-Dec-13 17:30N 47°34' W 052°42'0 0.0
2014-Dec-13 16:29N 47°34' W 052°42'3 3.6
2014-Dec-13 15:31N 47°33' W 052°37'  
Track history (hours):
 
Tides and Currents Weather Stations Pressure Air Temp Water Temp Dewpoint Dewpoint Depression Visibility Wind Speed Wind Dir Waves Ship Positions

Burin Sea

Last reported at 2014-Dec-21 18:11 UTC. Time now 2014-Dec-21 19:23 UTC.
Position N 47°34' W 052°42'.

Length 82 m; draft 5.4 m.

Type: Tug. MMSI: 316300000.

Date/timePositionNaut miles runAvg speedWind from/ knotsBaromVisibWave heightAir tempDewpointWater temp
2014-Dec-21 18:11N 47°34' W 052°42'0 0.0
2014-Dec-21 17:30N 47°34' W 052°42'0 0.0
2014-Dec-21 16:32N 47°34' W 052°42'2 1.9
2014-Dec-21 15:29N 47°34' W 052°39'1211.7
2014-Dec-21 14:30N 47°30' W 052°23'  
2014-Dec-19 01:25N 47°29' W 052°20'1011.4
2014-Dec-19 00:33N 47°33' W 052°34'6 5.4
2014-Dec-18 23:31N 47°34' W 052°42'0 0.0
2014-Dec-18 22:31N 47°34' W 052°42'0 0.0
2014-Dec-18 21:31N 47°34' W 052°42'0 0.0
2014-Dec-18 20:20N 47°34' W 052°42'0 0.0
2014-Dec-18 19:30N 47°34' W 052°42'0 0.0
2014-Dec-18 18:31N 47°34' W 052°42'0 0.0
2014-Dec-18 17:31N 47°34' W 052°42'0 0.0
2014-Dec-18 16:26N 47°34' W 052°42'0 0.0
2014-Dec-18 15:33N 47°34' W 052°42'0 0.0
2014-Dec-18 14:15N 47°34' W 052°42'0 0.0
2014-Dec-18 13:28N 47°34' W 052°42'0 0.0
2014-Dec-18 12:29N 47°34' W 052°42'0 0.0
2014-Dec-18 11:32N 47°34' W 052°42'0 0.0
2014-Dec-18 10:30N 47°34' W 052°42'0 0.0
2014-Dec-18 09:31N 47°34' W 052°42'0 0.0
2014-Dec-18 08:25N 47°34' W 052°42'0 0.0
2014-Dec-18 07:32N 47°34' W 052°42'0 0.0
2014-Dec-18 06:27N 47°34' W 052°42'0 0.0
2014-Dec-18 05:27N 47°34' W 052°42'0 0.0
2014-Dec-18 04:25N 47°34' W 052°42'0 0.0
2014-Dec-18 03:29N 47°34' W 052°42'0 0.0
2014-Dec-18 02:29N 47°34' W 052°42'0 0.0
2014-Dec-18 01:33N 47°34' W 052°42'0 0.0
2014-Dec-18 00:34N 47°34' W 052°42'0 0.0
2014-Dec-17 23:28N 47°34' W 052°42'0 0.0
2014-Dec-17 22:29N 47°34' W 052°42'0 0.0
2014-Dec-17 21:27N 47°34' W 052°42'0 0.0
2014-Dec-17 20:24N 47°34' W 052°42'0 0.0
2014-Dec-17 19:28N 47°34' W 052°42'0 0.0
2014-Dec-17 18:29N 47°34' W 052°42'0 0.0
2014-Dec-17 17:32N 47°34' W 052°42'0 0.0
2014-Dec-17 16:30N 47°34' W 052°42'0 0.0
2014-Dec-17 15:25N 47°34' W 052°42'0 0.0
2014-Dec-17 14:31N 47°34' W 052°42'0 0.0
2014-Dec-17 13:32N 47°34' W 052°42'0 0.0
2014-Dec-17 12:27N 47°34' W 052°42'0 0.0
2014-Dec-17 11:33N 47°34' W 052°42'0 0.0
2014-Dec-17 10:22N 47°34' W 052°42'0 0.0
2014-Dec-17 09:29N 47°34' W 052°42'0 0.0
2014-Dec-17 08:29N 47°34' W 052°42'0 0.0
2014-Dec-17 07:30N 47°34' W 052°42'0 0.0
2014-Dec-17 06:31N 47°34' W 052°42'0 0.4
2014-Dec-17 05:29N 47°34' W 052°42'0 0.0
2014-Dec-17 04:30N 47°34' W 052°42'0 0.0
2014-Dec-17 03:33N 47°34' W 052°42'9 8.2
2014-Dec-17 02:29N 47°31' W 052°30'  
2014-Dec-13 22:33N 47°31' W 052°27'1010.2
2014-Dec-13 21:32N 47°34' W 052°42'0 0.0
2014-Dec-13 20:30N 47°34' W 052°42'0 0.0
2014-Dec-13 19:30N 47°34' W 052°42'0 0.0
2014-Dec-13 18:27N 47°34' W 052°42'0 0.0
2014-Dec-13 17:30N 47°34' W 052°42'0 0.0
2014-Dec-13 16:29N 47°34' W 052°42'3 3.6
2014-Dec-13 15:31N 47°33' W 052°37'  

Dump ship's entire track history